sensor_id;sensor_type;location;lat;lon;timestamp;P1;durP1;ratioP1;P2;durP2;ratioP2
39924;SDS011;25592;49.986;11.618;2022-12-18T00:01:43;16.13;;;5.80;;
39924;SDS011;25592;49.986;11.618;2022-12-18T00:04:29;8.82;;;4.32;;
39924;SDS011;25592;49.986;11.618;2022-12-18T00:07:14;9.82;;;4.05;;
39924;SDS011;25592;49.986;11.618;2022-12-18T00:10:00;11.23;;;4.07;;
39924;SDS011;25592;49.986;11.618;2022-12-18T00:12:45;20.95;;;6.32;;
39924;SDS011;25592;49.986;11.618;2022-12-18T00:15:33;13.10;;;5.05;;
39924;SDS011;25592;49.986;11.618;2022-12-18T00:18:19;10.18;;;5.10;;
39924;SDS011;25592;49.986;11.618;2022-12-18T00:21:06;16.17;;;6.45;;
39924;SDS011;25592;49.986;11.618;2022-12-18T00:23:52;10.82;;;4.32;;
39924;SDS011;25592;49.986;11.618;2022-12-18T00:26:38;12.70;;;4.47;;
39924;SDS011;25592;49.986;11.618;2022-12-18T00:29:24;14.00;;;4.35;;
39924;SDS011;25592;49.986;11.618;2022-12-18T00:32:09;13.25;;;5.93;;
39924;SDS011;25592;49.986;11.618;2022-12-18T00:34:55;13.88;;;5.60;;
39924;SDS011;25592;49.986;11.618;2022-12-18T00:37:40;18.63;;;6.70;;
39924;SDS011;25592;49.986;11.618;2022-12-18T00:40:25;21.20;;;7.57;;
39924;SDS011;25592;49.986;11.618;2022-12-18T00:43:11;15.52;;;6.43;;
39924;SDS011;25592;49.986;11.618;2022-12-18T00:45:56;16.83;;;7.45;;
39924;SDS011;25592;49.986;11.618;2022-12-18T00:48:42;15.32;;;6.60;;
39924;SDS011;25592;49.986;11.618;2022-12-18T00:51:27;15.95;;;6.85;;
39924;SDS011;25592;49.986;11.618;2022-12-18T00:54:13;19.42;;;7.13;;
39924;SDS011;25592;49.986;11.618;2022-12-18T00:56:58;16.52;;;7.00;;
39924;SDS011;25592;49.986;11.618;2022-12-18T00:59:43;14.75;;;5.43;;
39924;SDS011;25592;49.986;11.618;2022-12-18T01:02:29;8.93;;;4.30;;
39924;SDS011;25592;49.986;11.618;2022-12-18T01:05:14;12.30;;;5.32;;
39924;SDS011;25592;49.986;11.618;2022-12-18T01:08:00;14.93;;;5.72;;
39924;SDS011;25592;49.986;11.618;2022-12-18T01:10:45;12.73;;;4.50;;
39924;SDS011;25592;49.986;11.618;2022-12-18T01:13:31;13.18;;;4.65;;
39924;SDS011;25592;49.986;11.618;2022-12-18T01:16:16;17.70;;;5.22;;
39924;SDS011;25592;49.986;11.618;2022-12-18T01:19:02;17.40;;;6.60;;
39924;SDS011;25592;49.986;11.618;2022-12-18T01:21:47;12.30;;;5.63;;
39924;SDS011;25592;49.986;11.618;2022-12-18T01:24:33;13.20;;;5.95;;
39924;SDS011;25592;49.986;11.618;2022-12-18T01:27:18;17.00;;;6.85;;
39924;SDS011;25592;49.986;11.618;2022-12-18T01:30:04;21.35;;;6.50;;
39924;SDS011;25592;49.986;11.618;2022-12-18T01:32:50;17.05;;;6.05;;
39924;SDS011;25592;49.986;11.618;2022-12-18T01:35:40;14.75;;;6.82;;
39924;SDS011;25592;49.986;11.618;2022-12-18T01:38:27;16.90;;;6.13;;
39924;SDS011;25592;49.986;11.618;2022-12-18T01:41:14;17.45;;;7.35;;
39924;SDS011;25592;49.986;11.618;2022-12-18T01:44:01;14.30;;;5.97;;
39924;SDS011;25592;49.986;11.618;2022-12-18T01:47:18;16.58;;;6.28;;
39924;SDS011;25592;49.986;11.618;2022-12-18T01:53:07;14.88;;;6.15;;
39924;SDS011;25592;49.986;11.618;2022-12-18T01:55:58;18.83;;;5.85;;
39924;SDS011;25592;49.986;11.618;2022-12-18T01:58:54;13.90;;;5.53;;
39924;SDS011;25592;49.986;11.618;2022-12-18T02:01:46;9.85;;;3.67;;
39924;SDS011;25592;49.986;11.618;2022-12-18T02:04:31;9.80;;;4.30;;
39924;SDS011;25592;49.986;11.618;2022-12-18T02:10:24;10.23;;;3.85;;
39924;SDS011;25592;49.986;11.618;2022-12-18T02:28:54;13.20;;;4.90;;
39924;SDS011;25592;49.986;11.618;2022-12-18T02:34:38;16.30;;;5.43;;
39924;SDS011;25592;49.986;11.618;2022-12-18T02:37:24;20.42;;;7.57;;
39924;SDS011;25592;49.986;11.618;2022-12-18T02:40:11;17.45;;;6.93;;
39924;SDS011;25592;49.986;11.618;2022-12-18T02:43:02;23.70;;;7.75;;
39924;SDS011;25592;49.986;11.618;2022-12-18T02:45:58;20.08;;;6.88;;
39924;SDS011;25592;49.986;11.618;2022-12-18T02:48:44;20.05;;;6.90;;
39924;SDS011;25592;49.986;11.618;2022-12-18T02:52:18;16.98;;;6.28;;
39924;SDS011;25592;49.986;11.618;2022-12-18T02:57:55;14.67;;;6.83;;
39924;SDS011;25592;49.986;11.618;2022-12-18T03:00:42;16.37;;;5.30;;
39924;SDS011;25592;49.986;11.618;2022-12-18T03:03:42;13.70;;;5.85;;
39924;SDS011;25592;49.986;11.618;2022-12-18T03:06:40;11.73;;;5.30;;
39924;SDS011;25592;49.986;11.618;2022-12-18T03:09:32;18.07;;;5.67;;
39924;SDS011;25592;49.986;11.618;2022-12-18T03:12:29;13.50;;;4.50;;
39924;SDS011;25592;49.986;11.618;2022-12-18T03:15:18;18.27;;;5.70;;
39924;SDS011;25592;49.986;11.618;2022-12-18T03:18:10;10.95;;;4.80;;
39924;SDS011;25592;49.986;11.618;2022-12-18T03:21:00;14.00;;;5.27;;
39924;SDS011;25592;49.986;11.618;2022-12-18T03:23:50;17.75;;;6.35;;
39924;SDS011;25592;49.986;11.618;2022-12-18T03:26:37;14.82;;;5.78;;
39924;SDS011;25592;49.986;11.618;2022-12-18T03:29:32;16.23;;;5.10;;
39924;SDS011;25592;49.986;11.618;2022-12-18T03:32:26;15.52;;;5.68;;
39924;SDS011;25592;49.986;11.618;2022-12-18T03:35:16;14.57;;;5.22;;
39924;SDS011;25592;49.986;11.618;2022-12-18T03:38:07;11.85;;;5.32;;
39924;SDS011;25592;49.986;11.618;2022-12-18T03:44:14;15.50;;;5.00;;
39924;SDS011;25592;49.986;11.618;2022-12-18T03:50:17;10.35;;;4.47;;
39924;SDS011;25592;49.986;11.618;2022-12-18T03:53:14;16.73;;;6.28;;
39924;SDS011;25592;49.986;11.618;2022-12-18T03:56:13;10.73;;;5.65;;
39924;SDS011;25592;49.986;11.618;2022-12-18T03:59:02;13.80;;;4.82;;
39924;SDS011;25592;49.986;11.618;2022-12-18T04:01:49;11.15;;;5.03;;
39924;SDS011;25592;49.986;11.618;2022-12-18T04:04:37;16.70;;;5.95;;
39924;SDS011;25592;49.986;11.618;2022-12-18T04:07:24;17.17;;;5.30;;
39924;SDS011;25592;49.986;11.618;2022-12-18T04:10:10;22.73;;;6.82;;
39924;SDS011;25592;49.986;11.618;2022-12-18T04:12:57;14.63;;;7.18;;
39924;SDS011;25592;49.986;11.618;2022-12-18T04:15:42;13.93;;;5.78;;
39924;SDS011;25592;49.986;11.618;2022-12-18T04:18:28;22.05;;;6.82;;
39924;SDS011;25592;49.986;11.618;2022-12-18T04:21:13;18.98;;;6.30;;
39924;SDS011;25592;49.986;11.618;2022-12-18T04:23:59;16.30;;;5.88;;
39924;SDS011;25592;49.986;11.618;2022-12-18T04:26:44;21.50;;;6.43;;
39924;SDS011;25592;49.986;11.618;2022-12-18T04:29:29;16.55;;;5.47;;
39924;SDS011;25592;49.986;11.618;2022-12-18T04:32:15;21.20;;;6.70;;
39924;SDS011;25592;49.986;11.618;2022-12-18T04:35:01;16.20;;;6.22;;
39924;SDS011;25592;49.986;11.618;2022-12-18T04:37:46;17.42;;;6.22;;
39924;SDS011;25592;49.986;11.618;2022-12-18T04:40:32;16.48;;;5.82;;
39924;SDS011;25592;49.986;11.618;2022-12-18T04:43:20;12.30;;;5.80;;
39924;SDS011;25592;49.986;11.618;2022-12-18T04:46:06;14.88;;;5.93;;
39924;SDS011;25592;49.986;11.618;2022-12-18T04:48:52;13.97;;;5.40;;
39924;SDS011;25592;49.986;11.618;2022-12-18T04:51:37;15.32;;;6.00;;
39924;SDS011;25592;49.986;11.618;2022-12-18T04:54:23;12.23;;;5.87;;
39924;SDS011;25592;49.986;11.618;2022-12-18T04:57:09;12.13;;;5.30;;
39924;SDS011;25592;49.986;11.618;2022-12-18T04:59:54;16.25;;;5.45;;
39924;SDS011;25592;49.986;11.618;2022-12-18T05:02:39;10.43;;;4.40;;
39924;SDS011;25592;49.986;11.618;2022-12-18T05:05:25;15.30;;;4.93;;
39924;SDS011;25592;49.986;11.618;2022-12-18T05:08:10;16.40;;;5.67;;
39924;SDS011;25592;49.986;11.618;2022-12-18T05:10:59;11.87;;;4.40;;
39924;SDS011;25592;49.986;11.618;2022-12-18T05:13:52;10.27;;;4.65;;
39924;SDS011;25592;49.986;11.618;2022-12-18T05:16:40;13.60;;;4.40;;
39924;SDS011;25592;49.986;11.618;2022-12-18T05:19:26;12.43;;;4.45;;
39924;SDS011;25592;49.986;11.618;2022-12-18T05:22:11;15.73;;;5.30;;
39924;SDS011;25592;49.986;11.618;2022-12-18T05:24:56;15.07;;;5.83;;
39924;SDS011;25592;49.986;11.618;2022-12-18T05:27:42;15.15;;;4.90;;
39924;SDS011;25592;49.986;11.618;2022-12-18T05:30:27;11.80;;;5.38;;
39924;SDS011;25592;49.986;11.618;2022-12-18T05:33:13;17.88;;;4.95;;
39924;SDS011;25592;49.986;11.618;2022-12-18T05:35:59;15.40;;;6.10;;
39924;SDS011;25592;49.986;11.618;2022-12-18T05:38:47;14.45;;;4.60;;
39924;SDS011;25592;49.986;11.618;2022-12-18T05:41:32;14.20;;;5.65;;
39924;SDS011;25592;49.986;11.618;2022-12-18T05:44:17;14.48;;;4.63;;
39924;SDS011;25592;49.986;11.618;2022-12-18T05:47:03;14.13;;;4.90;;
39924;SDS011;25592;49.986;11.618;2022-12-18T05:49:48;16.00;;;6.32;;
39924;SDS011;25592;49.986;11.618;2022-12-18T05:52:34;13.05;;;4.97;;
39924;SDS011;25592;49.986;11.618;2022-12-18T05:55:19;13.38;;;4.75;;
39924;SDS011;25592;49.986;11.618;2022-12-18T05:58:05;18.08;;;5.43;;
39924;SDS011;25592;49.986;11.618;2022-12-18T06:00:51;14.95;;;4.97;;
39924;SDS011;25592;49.986;11.618;2022-12-18T06:03:37;13.00;;;4.97;;
39924;SDS011;25592;49.986;11.618;2022-12-18T06:06:25;10.82;;;4.80;;
39924;SDS011;25592;49.986;11.618;2022-12-18T06:09:12;12.20;;;4.97;;
39924;SDS011;25592;49.986;11.618;2022-12-18T06:11:57;11.90;;;4.10;;
39924;SDS011;25592;49.986;11.618;2022-12-18T06:14:43;13.95;;;5.93;;
39924;SDS011;25592;49.986;11.618;2022-12-18T06:17:29;8.77;;;4.40;;
39924;SDS011;25592;49.986;11.618;2022-12-18T06:20:15;11.68;;;4.28;;
39924;SDS011;25592;49.986;11.618;2022-12-18T06:23:01;9.07;;;4.18;;
39924;SDS011;25592;49.986;11.618;2022-12-18T06:25:46;12.57;;;4.70;;
39924;SDS011;25592;49.986;11.618;2022-12-18T06:28:31;10.20;;;3.70;;
39924;SDS011;25592;49.986;11.618;2022-12-18T06:31:17;9.73;;;3.97;;
39924;SDS011;25592;49.986;11.618;2022-12-18T06:34:03;8.50;;;4.00;;
39924;SDS011;25592;49.986;11.618;2022-12-18T06:36:49;10.80;;;4.30;;
39924;SDS011;25592;49.986;11.618;2022-12-18T06:39:34;9.97;;;4.67;;
39924;SDS011;25592;49.986;11.618;2022-12-18T06:42:23;9.73;;;3.97;;
39924;SDS011;25592;49.986;11.618;2022-12-18T06:45:09;11.87;;;4.33;;
39924;SDS011;25592;49.986;11.618;2022-12-18T06:47:56;8.17;;;3.73;;
39924;SDS011;25592;49.986;11.618;2022-12-18T06:50:42;11.65;;;4.78;;
39924;SDS011;25592;49.986;11.618;2022-12-18T06:53:27;11.52;;;3.67;;
39924;SDS011;25592;49.986;11.618;2022-12-18T06:56:13;12.70;;;4.33;;
39924;SDS011;25592;49.986;11.618;2022-12-18T06:58:59;9.27;;;3.50;;
39924;SDS011;25592;49.986;11.618;2022-12-18T07:01:45;9.33;;;4.33;;
39924;SDS011;25592;49.986;11.618;2022-12-18T07:04:30;10.40;;;4.37;;
39924;SDS011;25592;49.986;11.618;2022-12-18T07:07:16;18.17;;;5.57;;
39924;SDS011;25592;49.986;11.618;2022-12-18T07:10:01;10.73;;;4.13;;
39924;SDS011;25592;49.986;11.618;2022-12-18T07:12:47;12.27;;;4.22;;
39924;SDS011;25592;49.986;11.618;2022-12-18T07:15:32;13.77;;;4.10;;
39924;SDS011;25592;49.986;11.618;2022-12-18T07:18:17;10.80;;;5.20;;
39924;SDS011;25592;49.986;11.618;2022-12-18T07:21:07;13.55;;;4.32;;
39924;SDS011;25592;49.986;11.618;2022-12-18T07:23:55;10.93;;;4.20;;
39924;SDS011;25592;49.986;11.618;2022-12-18T07:26:41;14.70;;;4.87;;
39924;SDS011;25592;49.986;11.618;2022-12-18T07:29:26;10.20;;;4.57;;
39924;SDS011;25592;49.986;11.618;2022-12-18T07:32:12;12.40;;;4.35;;
39924;SDS011;25592;49.986;11.618;2022-12-18T07:34:58;15.05;;;5.38;;
39924;SDS011;25592;49.986;11.618;2022-12-18T07:37:43;11.60;;;5.20;;
39924;SDS011;25592;49.986;11.618;2022-12-18T07:40:28;12.20;;;4.75;;
39924;SDS011;25592;49.986;11.618;2022-12-18T07:43:14;13.43;;;5.00;;
39924;SDS011;25592;49.986;11.618;2022-12-18T07:45:59;13.32;;;5.20;;
39924;SDS011;25592;49.986;11.618;2022-12-18T07:48:46;11.13;;;4.30;;
39924;SDS011;25592;49.986;11.618;2022-12-18T07:51:34;14.98;;;5.75;;
39924;SDS011;25592;49.986;11.618;2022-12-18T07:54:19;16.17;;;5.32;;
39924;SDS011;25592;49.986;11.618;2022-12-18T07:57:04;14.87;;;6.57;;
39924;SDS011;25592;49.986;11.618;2022-12-18T08:00:10;16.27;;;5.38;;
39924;SDS011;25592;49.986;11.618;2022-12-18T08:02:56;19.98;;;7.20;;
39924;SDS011;25592;49.986;11.618;2022-12-18T08:05:41;18.73;;;6.55;;
39924;SDS011;25592;49.986;11.618;2022-12-18T08:08:27;20.17;;;7.80;;
39924;SDS011;25592;49.986;11.618;2022-12-18T08:11:13;16.67;;;6.55;;
39924;SDS011;25592;49.986;11.618;2022-12-18T08:13:59;17.40;;;6.85;;
39924;SDS011;25592;49.986;11.618;2022-12-18T08:16:44;21.17;;;6.60;;
39924;SDS011;25592;49.986;11.618;2022-12-18T08:19:29;18.27;;;7.43;;
39924;SDS011;25592;49.986;11.618;2022-12-18T08:22:15;24.30;;;8.27;;
39924;SDS011;25592;49.986;11.618;2022-12-18T08:25:00;21.05;;;8.40;;
39924;SDS011;25592;49.986;11.618;2022-12-18T08:27:46;17.10;;;6.90;;
39924;SDS011;25592;49.986;11.618;2022-12-18T08:30:32;23.17;;;8.10;;
39924;SDS011;25592;49.986;11.618;2022-12-18T08:33:17;17.42;;;8.00;;
39924;SDS011;25592;49.986;11.618;2022-12-18T08:36:03;21.35;;;8.30;;
39924;SDS011;25592;49.986;11.618;2022-12-18T08:38:49;20.70;;;8.05;;
39924;SDS011;25592;49.986;11.618;2022-12-18T08:41:35;26.38;;;9.70;;
39924;SDS011;25592;49.986;11.618;2022-12-18T08:44:20;22.17;;;9.15;;
39924;SDS011;25592;49.986;11.618;2022-12-18T08:47:23;24.05;;;9.32;;
39924;SDS011;25592;49.986;11.618;2022-12-18T08:50:10;22.73;;;8.38;;
39924;SDS011;25592;49.986;11.618;2022-12-18T08:52:56;22.08;;;8.60;;
39924;SDS011;25592;49.986;11.618;2022-12-18T08:55:42;18.52;;;9.20;;
39924;SDS011;25592;49.986;11.618;2022-12-18T08:58:34;24.63;;;8.88;;
39924;SDS011;25592;49.986;11.618;2022-12-18T09:01:19;21.58;;;8.63;;
39924;SDS011;25592;49.986;11.618;2022-12-18T09:04:05;20.70;;;8.07;;
39924;SDS011;25592;49.986;11.618;2022-12-18T09:06:51;23.38;;;8.00;;
39924;SDS011;25592;49.986;11.618;2022-12-18T09:09:40;21.38;;;8.10;;
39924;SDS011;25592;49.986;11.618;2022-12-18T09:12:25;25.17;;;8.77;;
39924;SDS011;25592;49.986;11.618;2022-12-18T09:15:10;24.98;;;9.20;;
39924;SDS011;25592;49.986;11.618;2022-12-18T09:17:56;22.95;;;9.73;;
39924;SDS011;25592;49.986;11.618;2022-12-18T09:20:41;29.20;;;10.50;;
39924;SDS011;25592;49.986;11.618;2022-12-18T09:23:27;25.40;;;10.65;;
39924;SDS011;25592;49.986;11.618;2022-12-18T09:26:12;21.58;;;10.02;;
39924;SDS011;25592;49.986;11.618;2022-12-18T09:28:58;30.50;;;9.23;;
39924;SDS011;25592;49.986;11.618;2022-12-18T09:31:43;25.20;;;9.00;;
39924;SDS011;25592;49.986;11.618;2022-12-18T09:34:28;25.08;;;10.95;;
39924;SDS011;25592;49.986;11.618;2022-12-18T09:37:14;22.60;;;7.97;;
39924;SDS011;25592;49.986;11.618;2022-12-18T09:39:59;23.77;;;8.40;;
39924;SDS011;25592;49.986;11.618;2022-12-18T09:42:45;20.42;;;7.78;;
39924;SDS011;25592;49.986;11.618;2022-12-18T09:45:44;26.25;;;7.45;;
39924;SDS011;25592;49.986;11.618;2022-12-18T09:48:35;13.60;;;6.68;;
39924;SDS011;25592;49.986;11.618;2022-12-18T09:51:33;16.80;;;7.18;;
39924;SDS011;25592;49.986;11.618;2022-12-18T09:54:26;18.75;;;7.88;;
39924;SDS011;25592;49.986;11.618;2022-12-18T09:57:35;17.83;;;6.90;;
39924;SDS011;25592;49.986;11.618;2022-12-18T10:00:25;18.90;;;7.35;;
39924;SDS011;25592;49.986;11.618;2022-12-18T10:03:12;19.45;;;7.13;;
39924;SDS011;25592;49.986;11.618;2022-12-18T10:06:18;22.77;;;8.27;;
39924;SDS011;25592;49.986;11.618;2022-12-18T10:09:18;22.10;;;8.80;;
39924;SDS011;25592;49.986;11.618;2022-12-18T10:15:02;16.30;;;7.45;;
39924;SDS011;25592;49.986;11.618;2022-12-18T10:18:22;17.40;;;8.32;;
39924;SDS011;25592;49.986;11.618;2022-12-18T10:21:13;15.60;;;7.47;;
39924;SDS011;25592;49.986;11.618;2022-12-18T10:27:08;21.02;;;9.38;;
39924;SDS011;25592;49.986;11.618;2022-12-18T10:30:14;21.73;;;8.43;;
39924;SDS011;25592;49.986;11.618;2022-12-18T10:33:01;21.75;;;9.15;;
39924;SDS011;25592;49.986;11.618;2022-12-18T10:35:48;19.85;;;8.57;;
39924;SDS011;25592;49.986;11.618;2022-12-18T10:38:37;17.77;;;7.68;;
39924;SDS011;25592;49.986;11.618;2022-12-18T10:41:25;23.40;;;7.95;;
39924;SDS011;25592;49.986;11.618;2022-12-18T10:44:18;18.00;;;6.32;;
39924;SDS011;25592;49.986;11.618;2022-12-18T10:47:06;21.27;;;7.85;;
39924;SDS011;25592;49.986;11.618;2022-12-18T10:49:59;15.73;;;7.50;;
39924;SDS011;25592;49.986;11.618;2022-12-18T10:52:44;20.25;;;9.32;;
39924;SDS011;25592;49.986;11.618;2022-12-18T10:55:43;16.02;;;7.38;;
39924;SDS011;25592;49.986;11.618;2022-12-18T10:58:34;19.45;;;8.00;;
39924;SDS011;25592;49.986;11.618;2022-12-18T11:01:21;16.83;;;7.68;;
39924;SDS011;25592;49.986;11.618;2022-12-18T11:04:13;16.38;;;7.93;;
39924;SDS011;25592;49.986;11.618;2022-12-18T11:07:06;17.23;;;8.48;;
39924;SDS011;25592;49.986;11.618;2022-12-18T11:10:02;19.50;;;8.07;;
39924;SDS011;25592;49.986;11.618;2022-12-18T11:12:47;22.05;;;9.68;;
39924;SDS011;25592;49.986;11.618;2022-12-18T11:15:33;17.23;;;8.45;;
39924;SDS011;25592;49.986;11.618;2022-12-18T11:18:20;18.60;;;7.72;;
39924;SDS011;25592;49.986;11.618;2022-12-18T11:21:08;19.80;;;8.13;;
39924;SDS011;25592;49.986;11.618;2022-12-18T11:23:55;19.40;;;7.90;;
39924;SDS011;25592;49.986;11.618;2022-12-18T11:26:40;14.90;;;7.72;;
39924;SDS011;25592;49.986;11.618;2022-12-18T11:29:32;17.70;;;8.52;;
39924;SDS011;25592;49.986;11.618;2022-12-18T11:32:37;14.07;;;7.03;;
39924;SDS011;25592;49.986;11.618;2022-12-18T11:35:30;17.92;;;8.02;;
39924;SDS011;25592;49.986;11.618;2022-12-18T11:38:28;17.95;;;7.82;;
39924;SDS011;25592;49.986;11.618;2022-12-18T11:41:24;16.80;;;7.80;;
39924;SDS011;25592;49.986;11.618;2022-12-18T11:44:54;15.82;;;8.65;;
39924;SDS011;25592;49.986;11.618;2022-12-18T11:47:47;14.13;;;6.50;;
39924;SDS011;25592;49.986;11.618;2022-12-18T11:53:35;18.42;;;8.07;;
39924;SDS011;25592;49.986;11.618;2022-12-18T11:56:29;19.00;;;7.07;;
39924;SDS011;25592;49.986;11.618;2022-12-18T12:02:33;16.58;;;7.10;;
39924;SDS011;25592;49.986;11.618;2022-12-18T12:05:51;18.30;;;7.65;;
39924;SDS011;25592;49.986;11.618;2022-12-18T12:11:51;16.05;;;7.90;;
39924;SDS011;25592;49.986;11.618;2022-12-18T12:15:10;19.08;;;8.63;;
39924;SDS011;25592;49.986;11.618;2022-12-18T12:21:10;17.55;;;8.10;;
39924;SDS011;25592;49.986;11.618;2022-12-18T12:31:16;17.30;;;8.18;;
39924;SDS011;25592;49.986;11.618;2022-12-18T12:33:38;14.60;;;6.80;;
39924;SDS011;25592;49.986;11.618;2022-12-18T12:36:40;20.58;;;7.25;;
39924;SDS011;25592;49.986;11.618;2022-12-18T12:39:54;19.55;;;7.65;;
39924;SDS011;25592;49.986;11.618;2022-12-18T12:48:55;15.23;;;6.28;;
39924;SDS011;25592;49.986;11.618;2022-12-18T12:54:33;15.95;;;6.55;;
39924;SDS011;25592;49.986;11.618;2022-12-18T12:57:20;19.15;;;7.20;;
39924;SDS011;25592;49.986;11.618;2022-12-18T13:00:15;17.13;;;7.43;;
39924;SDS011;25592;49.986;11.618;2022-12-18T13:03:15;14.07;;;6.22;;
39924;SDS011;25592;49.986;11.618;2022-12-18T13:06:23;17.02;;;7.47;;
39924;SDS011;25592;49.986;11.618;2022-12-18T13:09:18;18.63;;;7.38;;
39924;SDS011;25592;49.986;11.618;2022-12-18T13:12:04;20.63;;;8.02;;
39924;SDS011;25592;49.986;11.618;2022-12-18T13:15:23;17.20;;;7.47;;
39924;SDS011;25592;49.986;11.618;2022-12-18T13:18:24;17.40;;;7.18;;
39924;SDS011;25592;49.986;11.618;2022-12-18T13:21:27;13.32;;;7.05;;
39924;SDS011;25592;49.986;11.618;2022-12-18T13:24:15;17.88;;;7.30;;
39924;SDS011;25592;49.986;11.618;2022-12-18T13:36:23;14.13;;;6.47;;
39924;SDS011;25592;49.986;11.618;2022-12-18T13:48:23;17.50;;;7.35;;
39924;SDS011;25592;49.986;11.618;2022-12-18T13:51:11;17.25;;;7.18;;
39924;SDS011;25592;49.986;11.618;2022-12-18T13:54:06;18.02;;;7.45;;
39924;SDS011;25592;49.986;11.618;2022-12-18T13:57:04;18.30;;;7.13;;
39924;SDS011;25592;49.986;11.618;2022-12-18T13:59:51;16.00;;;7.50;;
39924;SDS011;25592;49.986;11.618;2022-12-18T14:02:37;17.02;;;6.65;;
39924;SDS011;25592;49.986;11.618;2022-12-18T14:05:30;16.35;;;8.13;;
39924;SDS011;25592;49.986;11.618;2022-12-18T14:08:17;18.08;;;6.97;;
39924;SDS011;25592;49.986;11.618;2022-12-18T14:11:03;18.13;;;7.90;;
39924;SDS011;25592;49.986;11.618;2022-12-18T14:13:50;18.85;;;7.65;;
39924;SDS011;25592;49.986;11.618;2022-12-18T14:16:37;18.55;;;7.20;;
39924;SDS011;25592;49.986;11.618;2022-12-18T14:19:26;24.88;;;11.40;;
39924;SDS011;25592;49.986;11.618;2022-12-18T14:22:16;22.30;;;9.27;;
39924;SDS011;25592;49.986;11.618;2022-12-18T14:30:52;18.88;;;9.18;;
39924;SDS011;25592;49.986;11.618;2022-12-18T14:33:39;18.13;;;8.80;;
39924;SDS011;25592;49.986;11.618;2022-12-18T14:36:26;17.52;;;9.00;;
39924;SDS011;25592;49.986;11.618;2022-12-18T14:39:17;22.52;;;10.52;;
39924;SDS011;25592;49.986;11.618;2022-12-18T14:42:02;20.23;;;9.02;;
39924;SDS011;25592;49.986;11.618;2022-12-18T14:44:48;18.73;;;8.93;;
39924;SDS011;25592;49.986;11.618;2022-12-18T14:47:54;18.20;;;8.38;;
39924;SDS011;25592;49.986;11.618;2022-12-18T14:50:39;17.35;;;7.18;;
39924;SDS011;25592;49.986;11.618;2022-12-18T14:53:35;18.05;;;8.43;;
39924;SDS011;25592;49.986;11.618;2022-12-18T14:56:25;19.25;;;8.70;;
39924;SDS011;25592;49.986;11.618;2022-12-18T14:59:20;17.27;;;9.05;;
39924;SDS011;25592;49.986;11.618;2022-12-18T15:02:22;20.55;;;9.23;;
39924;SDS011;25592;49.986;11.618;2022-12-18T15:07:59;16.88;;;7.47;;
39924;SDS011;25592;49.986;11.618;2022-12-18T15:10:48;21.08;;;9.45;;
39924;SDS011;25592;49.986;11.618;2022-12-18T15:13:33;19.10;;;8.20;;
39924;SDS011;25592;49.986;11.618;2022-12-18T15:16:19;22.08;;;8.00;;
39924;SDS011;25592;49.986;11.618;2022-12-18T15:19:07;24.45;;;8.60;;
39924;SDS011;25592;49.986;11.618;2022-12-18T15:21:52;18.80;;;6.57;;
39924;SDS011;25592;49.986;11.618;2022-12-18T15:24:38;22.73;;;9.50;;
39924;SDS011;25592;49.986;11.618;2022-12-18T15:27:28;30.20;;;11.40;;
39924;SDS011;25592;49.986;11.618;2022-12-18T15:30:17;19.98;;;9.05;;
39924;SDS011;25592;49.986;11.618;2022-12-18T15:33:22;19.30;;;8.85;;
39924;SDS011;25592;49.986;11.618;2022-12-18T15:36:13;19.63;;;7.75;;
39924;SDS011;25592;49.986;11.618;2022-12-18T15:39:02;23.05;;;8.85;;
39924;SDS011;25592;49.986;11.618;2022-12-18T15:41:50;19.75;;;7.93;;
39924;SDS011;25592;49.986;11.618;2022-12-18T15:44:55;24.67;;;8.63;;
39924;SDS011;25592;49.986;11.618;2022-12-18T15:47:40;20.85;;;8.43;;
39924;SDS011;25592;49.986;11.618;2022-12-18T15:50:28;23.42;;;8.95;;
39924;SDS011;25592;49.986;11.618;2022-12-18T15:53:14;17.70;;;7.93;;
39924;SDS011;25592;49.986;11.618;2022-12-18T15:56:00;17.38;;;8.40;;
39924;SDS011;25592;49.986;11.618;2022-12-18T15:59:07;18.45;;;8.07;;
39924;SDS011;25592;49.986;11.618;2022-12-18T16:01:55;27.20;;;7.88;;
39924;SDS011;25592;49.986;11.618;2022-12-18T16:04:41;22.02;;;8.68;;
39924;SDS011;25592;49.986;11.618;2022-12-18T16:07:27;18.33;;;8.90;;
39924;SDS011;25592;49.986;11.618;2022-12-18T16:10:15;35.55;;;14.15;;
39924;SDS011;25592;49.986;11.618;2022-12-18T16:13:00;21.15;;;9.93;;
39924;SDS011;25592;49.986;11.618;2022-12-18T16:15:46;21.08;;;9.38;;
39924;SDS011;25592;49.986;11.618;2022-12-18T16:18:31;14.38;;;8.25;;
39924;SDS011;25592;49.986;11.618;2022-12-18T16:21:17;16.58;;;7.95;;
39924;SDS011;25592;49.986;11.618;2022-12-18T16:24:02;23.73;;;8.38;;
39924;SDS011;25592;49.986;11.618;2022-12-18T16:26:48;14.63;;;6.57;;
39924;SDS011;25592;49.986;11.618;2022-12-18T16:29:35;20.98;;;8.75;;
39924;SDS011;25592;49.986;11.618;2022-12-18T16:32:21;17.30;;;8.85;;
39924;SDS011;25592;49.986;11.618;2022-12-18T16:35:12;19.55;;;7.82;;
39924;SDS011;25592;49.986;11.618;2022-12-18T16:37:58;16.52;;;7.90;;
39924;SDS011;25592;49.986;11.618;2022-12-18T16:40:43;15.98;;;7.22;;
39924;SDS011;25592;49.986;11.618;2022-12-18T16:43:47;17.83;;;7.05;;
39924;SDS011;25592;49.986;11.618;2022-12-18T16:46:39;17.85;;;7.53;;
39924;SDS011;25592;49.986;11.618;2022-12-18T16:49:28;16.63;;;6.68;;
39924;SDS011;25592;49.986;11.618;2022-12-18T16:52:13;19.33;;;8.77;;
39924;SDS011;25592;49.986;11.618;2022-12-18T16:54:59;23.65;;;8.95;;
39924;SDS011;25592;49.986;11.618;2022-12-18T16:57:45;21.90;;;8.35;;
39924;SDS011;25592;49.986;11.618;2022-12-18T17:00:30;18.58;;;7.75;;
39924;SDS011;25592;49.986;11.618;2022-12-18T17:03:16;15.63;;;6.80;;
39924;SDS011;25592;49.986;11.618;2022-12-18T17:06:04;16.08;;;8.00;;
39924;SDS011;25592;49.986;11.618;2022-12-18T17:08:57;16.75;;;8.43;;
39924;SDS011;25592;49.986;11.618;2022-12-18T17:11:45;22.52;;;7.88;;
39924;SDS011;25592;49.986;11.618;2022-12-18T17:14:31;18.52;;;8.38;;
39924;SDS011;25592;49.986;11.618;2022-12-18T17:17:17;18.70;;;8.85;;
39924;SDS011;25592;49.986;11.618;2022-12-18T17:20:06;19.38;;;7.80;;
39924;SDS011;25592;49.986;11.618;2022-12-18T17:22:52;22.13;;;9.18;;
39924;SDS011;25592;49.986;11.618;2022-12-18T17:25:41;23.90;;;8.07;;
39924;SDS011;25592;49.986;11.618;2022-12-18T17:28:26;22.30;;;9.75;;
39924;SDS011;25592;49.986;11.618;2022-12-18T17:31:16;18.48;;;7.45;;
39924;SDS011;25592;49.986;11.618;2022-12-18T17:34:03;24.40;;;8.32;;
39924;SDS011;25592;49.986;11.618;2022-12-18T17:36:49;16.88;;;7.30;;
39924;SDS011;25592;49.986;11.618;2022-12-18T17:39:34;18.92;;;6.50;;
39924;SDS011;25592;49.986;11.618;2022-12-18T17:42:19;16.92;;;6.88;;
39924;SDS011;25592;49.986;11.618;2022-12-18T17:45:05;17.52;;;7.45;;
39924;SDS011;25592;49.986;11.618;2022-12-18T17:47:51;18.90;;;7.25;;
39924;SDS011;25592;49.986;11.618;2022-12-18T17:50:43;16.10;;;7.13;;
39924;SDS011;25592;49.986;11.618;2022-12-18T17:53:29;17.27;;;7.78;;
39924;SDS011;25592;49.986;11.618;2022-12-18T17:56:15;18.23;;;7.22;;
39924;SDS011;25592;49.986;11.618;2022-12-18T17:59:03;16.70;;;7.57;;
39924;SDS011;25592;49.986;11.618;2022-12-18T18:01:50;18.52;;;6.70;;
39924;SDS011;25592;49.986;11.618;2022-12-18T18:04:35;15.07;;;6.25;;